Latest Coastal Weather Observations for Barrow Island

IDW60701

Issued at 3:03 pm WST Monday 26 September 2016 (issued every 10 minutes, with the page automatically refreshed every 10 minutes)

About coastal observations | Map of coastal stations | Coastal observations for WA | Marine services | Other Formats
Station Details ID: 005094 Name: BARROW ISLAND AIRPORT Lat: -20.87 Lon: 115.41 Height: 6.4 m
Data from the previous 72 hours. | See also: Recent months at Barrow Island
Date/Time
WST
Temp
°C
Wind Pressure Rain since
9am
mm
Weather Cloud Vis
km
Sea
Height
m
Swell
Dir  Spd
kts
Gust
kts
hPa Trend Height
m
Period
s
Dir
26/03:00pm 29.3 SW 13 15 1009.9 - 0.0 - - - - - - -
26/02:30pm 28.3 SW 11 13 1010.0 - 0.0 - - - - - - -
26/02:00pm 28.1 SW 11 13 1010.3 - 0.0 - - - - - - -
26/01:30pm 26.4 SSW 9 11 1010.7 - 0.0 - - - - - - -
26/01:00pm 25.7 SSW 7 9 1011.0 - 0.0 - - - - - - -
26/12:30pm 25.4 SSW 8 9 1011.4 - 0.0 - - - - - - -
26/12:00pm 26.1 SSW 10 11 1012.0 - 0.0 - - - - - - -
26/11:30am 25.2 S 11 13 1012.3 - 0.0 - - - - - - -
26/11:00am 24.6 S 14 17 1012.6 - 0.0 - - - - - - -
26/10:30am 24.8 S 15 17 1013.0 - 0.0 - - - - - - -
26/10:00am 23.5 S 18 22 1013.3 - 0.0 - - - - - - -
26/09:30am 22.1 S 19 23 1013.6 - 0.0 - - - - - - -
26/09:00am 21.2 S 21 23 1013.7 - 0.0 - - - - - - -
26/08:30am 20.8 S 22 26 1013.4 - 0.0 - - - - - - -
26/08:00am 20.6 S 23 28 1013.1 - 0.0 - - - - - - -
26/07:30am 19.6 S 23 27 1012.9 - 0.0 - - - - - - -
26/07:00am 19.9 S 25 30 1012.5 - 0.0 - - - - - - -
26/06:30am 19.7 S 25 28 1012.3 - 0.0 - - - - - - -
26/06:00am 19.7 S 25 30 1012.0 - 0.0 - - - - - - -
26/05:30am 19.6 S 26 30 1011.8 - 0.0 - - - - - - -
26/05:00am 19.8 S 26 32 1011.5 - 0.0 - - - - - - -
26/04:30am 19.7 S 27 31 1011.4 - 0.0 - - - - - - -
26/04:00am 19.6 S 26 29 1011.2 - 0.0 - - - - - - -
26/03:30am 19.6 S 26 31 1011.3 - 0.0 - - - - - - -
26/03:00am 19.6 S 26 30 1011.4 - 0.0 - - - - - - -
26/02:30am 19.8 S 28 33 1011.4 - 0.0 - - - - - - -
26/02:00am 19.9 SSW 27 31 1011.8 - 0.0 - - - - - - -
26/01:30am 20.0 SSW 27 33 1011.8 - 0.0 - - - - - - -
26/01:00am 20.0 SSW 26 32 1012.1 - 0.0 - - - - - - -
26/12:30am 20.1 SSW 29 33 1012.4 - 0.0 - - - - - - -
26/12:00am 20.4 SSW 28 33 1012.6 - 0.0 - - - - - - -
 
Date/Time
WST
Temp
°C
Wind Pressure Rain since
9am
mm
Weather Cloud Vis
km
Sea
Height
m
Swell
Dir  Spd
kts
Gust
kts
hPa Trend Height
m
Period
s
Dir
25/11:30pm 20.5 SSW 28 33 1012.8 - 0.0 - - - - - - -
25/11:00pm 20.7 SSW 26 31 1012.8 - 0.0 - - - - - - -
25/10:30pm 20.8 SSW 26 30 1012.9 - 0.0 - - - - - - -
25/10:00pm 21.0 SW 25 30 1013.0 - 0.0 - - - - - - -
25/09:30pm 21.5 SW 26 31 1012.8 - 0.0 - - - - - - -
25/09:00pm 21.7 SW 23 28 1012.5 - 0.0 - - - - - - -
25/08:30pm 22.0 WSW 17 22 1012.3 - 0.0 - - - - - - -
25/08:00pm 22.1 SW 17 21 1012.0 - 0.0 - - - - - - -
25/07:30pm 22.0 WSW 16 21 1011.8 - 0.0 - - - - - - -
25/07:00pm 21.9 WSW 16 19 1011.7 - 0.0 - - - - - - -
25/06:30pm 22.0 WSW 16 20 1011.3 - 0.0 - - - - - - -
25/06:00pm 22.5 WSW 18 21 1011.0 - 0.0 - - - - - - -
25/05:30pm 23.1 WSW 20 24 1010.7 - 0.0 - - - - - - -
25/05:00pm 23.2 WSW 22 26 1010.5 - 0.0 - - - - - - -
25/04:30pm 23.9 SW 21 25 1010.4 - 0.0 - - - - - - -
25/04:00pm 24.1 SW 22 27 1010.3 - 0.0 - - - - - - -
25/03:30pm 23.9 SW 23 27 1010.3 - 0.0 - - - - - - -
25/03:00pm 24.1 SW 22 27 1010.4 - 0.0 - - - - - - -
25/02:30pm 24.3 SW 22 26 1010.6 - 0.0 - - - - - - -
25/02:00pm 24.1 SW 21 25 1011.0 - 0.0 - - - - - - -
25/01:30pm 24.1 SW 21 25 1011.5 - 0.0 - - - - - - -
25/01:00pm 23.7 SW 20 24 1012.0 - 0.0 - - - - - - -
25/12:30pm 23.2 SSW 20 23 1012.2 - 0.0 - - - - - - -
25/12:00pm 22.3 SSW 21 24 1012.6 - 0.0 - - - - - - -
25/11:30am 21.8 SSW 20 23 1013.1 - 0.0 - - - - - - -
25/11:00am 21.5 SSW 21 25 1013.5 - 0.0 - - - - - - -
25/10:30am 20.7 SSW 22 27 1013.4 - 0.0 - - - - - - -
25/10:00am 20.1 S 23 27 1013.5 - 0.0 - - - - - - -
25/09:30am 19.8 SSW 23 28 1013.6 - 0.0 - - - - - - -
25/09:00am 19.6 SSW 23 28 1013.6 - 0.0 - - - - - - -
25/08:30am 19.2 S 24 30 1013.5 - 0.0 - - - - - - -
25/08:00am 18.9 S 26 31 1013.1 - 0.0 - - - - - - -
25/07:30am 18.7 S 26 30 1012.7 - 0.0 - - - - - - -
25/07:00am 18.5 S 24 31 1012.5 - 0.0 - - - - - - -
25/06:30am 18.6 S 25 29 1012.2 - 0.0 - - - - - - -
25/06:00am 18.7 S 24 29 1012.1 - 0.0 - - - - - - -
25/05:30am 19.0 SSW 23 27 1011.8 - 0.0 - - - - - - -
25/05:00am 19.1 SSW 22 27 1011.5 - 0.0 - - - - - - -
25/04:30am 19.3 SSW 22 26 1011.4 - 0.0 - - - - - - -
25/04:00am 19.5 SSW 21 26 1011.4 - 0.0 - - - - - - -
25/03:30am 19.8 SSW 20 25 1011.5 - 0.0 - - - - - - -
25/03:00am 20.0 SSW 19 22 1011.6 - 0.0 - - - - - - -
25/02:30am 20.1 SSW 19 22 1011.7 - 0.0 - - - - - - -
25/02:00am 20.4 SSW 19 22 1011.7 - 0.0 - - - - - - -
25/01:30am 20.6 SSW 19 22 1011.8 - 0.0 - - - - - - -
25/01:00am 20.7 SW 18 20 1012.1 - 0.0 - - - - - - -
25/12:30am 20.5 SW 17 21 1012.1 - 0.0 - - - - - - -
25/12:00am 20.4 SW 16 19 1012.3 - 0.0 - - - - - - -
 
Date/Time
WST
Temp
°C
Wind Pressure Rain since
9am
mm
Weather Cloud Vis
km
Sea
Height
m
Swell
Dir  Spd
kts
Gust
kts
hPa Trend Height
m
Period
s
Dir
24/11:30pm 20.3 SW 14 18 1012.5 - 0.0 - - - - - - -
24/11:00pm 20.8 SW 15 19 1012.6 - 0.0 - - - - - - -
24/10:30pm 21.2 SW 16 19 1012.8 - 0.0 - - - - - - -
24/10:00pm 21.3 WSW 13 16 1012.9 - 0.0 - - - - - - -
24/09:30pm 21.2 W 12 15 1013.0 - 0.0 - - - - - - -
24/09:00pm 21.3 W 12 15 1012.8 - 0.0 - - - - - - -
24/08:30pm 21.5 W 12 15 1012.6 - 0.0 - - - - - - -
24/08:00pm 21.4 WSW 12 15 1012.3 - 0.0 - - - - - - -
24/07:30pm 21.7 WSW 12 14 1012.1 - 0.0 - - - - - - -
24/07:00pm 21.8 W 11 14 1011.7 - 0.0 - - - - - - -
24/06:30pm 22.0 WSW 11 14 1011.5 - 0.0 - - - - - - -
24/06:00pm 22.9 WSW 13 16 1011.4 - 0.0 - - - - - - -
24/05:30pm 23.6 WSW 15 17 1011.4 - 0.0 - - - - - - -
24/05:00pm 24.3 WSW 14 17 1011.2 - 0.0 - - - - - - -
24/04:30pm 25.0 WSW 13 16 1011.2 - 0.0 - - - - - - -
24/04:00pm 25.0 WSW 13 16 1011.2 - 0.0 - - - - - - -
24/03:30pm 25.5 SW 12 16 1011.2 - 0.0 - - - - - - -
24/03:00pm 25.7 SW 12 15 1011.2 - 0.0 - - - - - - -
24/02:30pm 26.0 SW 11 13 1011.6 - 0.0 - - - - - - -
24/02:00pm 25.7 SW 10 13 1011.9 - 0.0 - - - - - - -
24/01:30pm 25.7 SSW 10 11 1012.2 - 0.0 - - - - - - -
24/01:00pm 25.4 SSW 9 11 1012.5 - 0.0 - - - - - - -
24/12:30pm 25.0 S 9 11 1013.1 - 0.0 - - - - - - -
24/12:00pm 24.6 S 10 12 1013.4 - 0.0 - - - - - - -
24/11:30am 24.0 SSE 11 13 1013.7 - 0.0 - - - - - - -
24/11:00am 24.1 SSE 11 15 1014.0 - 0.0 - - - - - - -
24/10:30am 23.5 S 13 15 1014.2 - 0.0 - - - - - - -
24/10:00am 22.6 S 14 17 1014.4 - 0.0 - - - - - - -
24/09:30am 22.2 S 15 17 1014.6 - 0.0 - - - - - - -
24/09:00am 21.6 SSE 14 18 1014.8 - 0.0 - - - - - - -
24/08:30am 21.3 S 18 20 1014.6 - 0.0 - - - - - - -
24/08:00am 20.5 S 19 22 1014.3 - 0.0 - - - - - - -
24/07:30am 20.2 S 20 24 1013.9 - 0.0 - - - - - - -
24/07:00am 19.8 S 23 25 1013.4 - 0.0 - - - - - - -
24/06:30am 19.7 S 23 27 1013.1 - 0.0 - - - - - - -
24/06:00am 19.7 S 24 27 1012.8 - 0.0 - - - - - - -
24/05:30am 19.8 S 23 27 1012.4 - 0.0 - - - - - - -
24/05:00am 20.1 S 23 27 1012.1 - 0.0 - - - - - - -
24/04:30am 20.0 S 21 24 1011.8 - 0.0 - - - - - - -
24/04:00am 20.2 S 22 25 1011.8 - 0.0 - - - - - - -
24/03:30am 20.6 S 23 26 1011.7 - 0.0 - - - - - - -
24/03:00am 21.0 S 21 25 1011.7 - 0.0 - - - - - - -
24/02:30am 21.3 S 19 22 1011.8 - 0.0 - - - - - - -
24/02:00am 21.5 S 19 21 1011.9 - 0.0 - - - - - - -
24/01:30am 21.7 S 18 22 1012.1 - 0.0 - - - - - - -
24/01:00am 21.6 S 19 22 1012.2 - 0.0 - - - - - - -
24/12:30am 21.7 S 18 22 1012.4 - 0.0 - - - - - - -
24/12:00am 21.7 SSW 18 21 1012.4 - 0.0 - - - - - - -
 
Date/Time
WST
Temp
°C
Wind Pressure Rain since
9am
mm
Weather Cloud Vis
km
Sea
Height
m
Swell
Dir  Spd
kts
Gust
kts
hPa Trend Height
m
Period
s
Dir
23/11:30pm 21.6 SSW 20 23 1012.6 - 0.0 - - - - - - -
23/11:00pm 21.5 SSW 20 23 1012.6 - 0.0 - - - - - - -
23/10:30pm 21.4 SW 20 23 1012.6 - 0.0 - - - - - - -
23/10:00pm 21.8 SW 19 22 1012.7 - 0.0 - - - - - - -
23/09:30pm 22.3 SW 17 19 1012.6 - 0.0 - - - - - - -
23/09:00pm 22.2 SW 16 18 1012.5 - 0.0 - - - - - - -
23/08:30pm 22.1 SW 15 18 1012.3 - 0.0 - - - - - - -
23/08:00pm 22.3 SW 15 19 1012.0 - 0.0 - - - - - - -
23/07:30pm 22.2 WSW 14 19 1011.8 - 0.0 - - - - - - -
23/07:00pm 22.4 WSW 15 19 1011.6 - 0.0 - - - - - - -
23/06:30pm 22.6 WSW 17 22 1011.2 - 0.0 - - - - - - -
23/06:00pm 23.1 WSW 17 21 1011.0 - 0.0 - - - - - - -
23/05:30pm 23.8 WSW 16 19 1010.9 - 0.0 - - - - - - -
23/05:00pm 24.0 WSW 17 21 1010.9 - 0.0 - - - - - - -
23/04:30pm 24.6 WSW 17 21 1010.9 - 0.0 - - - - - - -
23/04:00pm 25.0 SW 15 19 1010.9 - 0.0 - - - - - - -
23/03:30pm 25.1 SW 16 20 1011.0 - 0.0 - - - - - - -

Other Formats:

Comma delimited format used in spreadsheet applications
http://www.bom.gov.au/fwo/IDW60701/IDW60701.95304.axf

JavaScript Object Notation format (JSON) in row-major order
http://www.bom.gov.au/fwo/IDW60701/IDW60701.95304.json